| time (UTC) | temp F | wind direction | speed MPH | gust MPH | rain 1hr in | rain 24hr in | rain mn in | humidity % | barometer mb |
| 20260505211227 | 79 | 109 | 4.0 | 8.0 | 0.00 | 0.00 | 0.00 | 31 | 1012.2 |
| 20260505210724 | 79 | 95 | 3.0 | 7.0 | 0.00 | 0.00 | 0.00 | 31 | 1012.1 |
| 20260505210217 | 79 | 111 | 3.0 | 9.0 | 0.00 | 0.00 | 0.00 | 31 | 1012.1 |
| 20260505205732 | 79 | 121 | 3.0 | 9.0 | 0.00 | 0.00 | 0.00 | 32 | 1012.2 |
| 20260505205225 | 78 | 84 | 2.0 | 7.0 | 0.00 | 0.00 | 0.00 | 32 | 1012.1 |
| 20260505203730 | 78 | 104 | 3.0 | 12.0 | 0.00 | 0.00 | 0.00 | 33 | 1012.3 |
| 20260505203223 | 78 | 104 | 2.0 | 12.0 | 0.00 | 0.00 | 0.00 | 32 | 1012.3 |
| 20260505202716 | 78 | 116 | 3.0 | 8.0 | 0.00 | 0.00 | 0.00 | 34 | 1012.2 |
| 20260505202235 | 77 | 72 | 4.0 | 9.0 | 0.00 | 0.00 | 0.00 | 33 | 1012.3 |
| 20260505201728 | 77 | 29 | 2.0 | 7.0 | 0.00 | 0.00 | 0.00 | 33 | 1012.4 |
| 20260505201222 | 77 | 85 | 2.0 | 10.0 | 0.00 | 0.00 | 0.00 | 34 | 1012.5 |
| 20260505200736 | 76 | 76 | 2.0 | 10.0 | 0.00 | 0.00 | 0.00 | 34 | 1012.5 |
| 20260505195723 | 76 | 111 | 2.0 | 8.0 | 0.00 | 0.00 | 0.00 | 34 | 1012.6 |
| 20260505194731 | 76 | 50 | 2.0 | 10.0 | 0.00 | 0.00 | 0.00 | 35 | 1012.7 |
| 20260505194227 | 76 | 124 | 4.0 | 10.0 | 0.00 | 0.00 | 0.00 | 35 | 1012.6 |
| 20260505193216 | 75 | 71 | 3.0 | 5.0 | 0.00 | 0.00 | 0.00 | 35 | 1012.7 |
| 20260505192731 | 75 | 95 | 2.0 | 5.0 | 0.00 | 0.00 | 0.00 | 35 | 1012.8 |
| 20260505192224 | 75 | 95 | 2.0 | 6.0 | 0.00 | 0.00 | 0.00 | 37 | 1012.8 |
| 20260505191718 | 74 | 99 | 3.0 | 6.0 | 0.00 | 0.00 | 0.00 | 35 | 1012.8 |
| 20260505190728 | 74 | 123 | 2.0 | 6.0 | 0.00 | 0.00 | 0.00 | 37 | 1012.7 |
| 20260505185721 | 74 | 17 | 0.0 | 6.0 | 0.00 | 0.00 | 0.00 | 37 | 1012.9 |
| 20260505184226 | 72 | 108 | 1.0 | 5.0 | 0.00 | 0.00 | 0.00 | 39 | 1012.9 |
| 20260505183719 | 72 | 42 | 1.0 | 5.0 | 0.00 | 0.00 | 0.00 | 41 | 1012.9 |
| 20260505183233 | 72 | 105 | 0.0 | 6.0 | 0.00 | 0.00 | 0.00 | 41 | 1012.9 |
| 20260505182727 | 71 | 105 | 2.0 | 6.0 | 0.00 | 0.00 | 0.00 | 40 | 1012.9 |
| 20260505182219 | 71 | 118 | 0.0 | 6.0 | 0.00 | 0.00 | 0.00 | 40 | 1012.9 |
| 20260505181733 | 72 | 107 | 2.0 | 6.0 | 0.00 | 0.00 | 0.00 | 41 | 1012.9 |
| 20260505181231 | 71 | 97 | 0.0 | 1.0 | 0.00 | 0.00 | 0.00 | 41 | 1012.8 |
| 20260505175228 | 69 | 51 | 0.0 | 5.0 | 0.00 | 0.00 | 0.00 | 45 | 1012.9 |
| 20260505174216 | 68 | 116 | 0.0 | 4.0 | 0.00 | 0.00 | 0.00 | 44 | 1013.0 |
| 20260505173731 | 68 | 114 | 1.0 | 4.0 | 0.00 | 0.00 | 0.00 | 44 | 1013.0 |
| 20260505173224 | 68 | 122 | 0.0 | 4.0 | 0.00 | 0.00 | 0.00 | 44 | 1012.9 |
| 20260505172717 | 68 | 104 | 0.0 | 4.0 | 0.00 | 0.00 | 0.00 | 45 | 1012.9 |
| 20260505172235 | 67 | 102 | 0.0 | 1.0 | 0.00 | 0.00 | 0.00 | 45 | 1012.9 |
| 20260505171727 | 66 | 101 | 0.0 | 0.0 | 0.00 | 0.00 | 0.00 | 47 | 1012.9 |
| 20260505163224 | 63 | 178 | 0.0 | 0.0 | 0.00 | 0.00 | 0.00 | 55 | 1013.1 |
| 20260505162716 | 62 | 173 | 0.0 | 1.0 | 0.00 | 0.00 | 0.00 | 56 | 1013.1 |
| 20260505162233 | 62 | 242 | 0.0 | 1.0 | 0.00 | 0.00 | 0.00 | 55 | 1013.1 |
| 20260505161222 | 61 | 138 | 0.0 | 1.0 | 0.00 | 0.00 | 0.00 | 58 | 1013.2 |
| 20260505160716 | 61 | 168 | 0.0 | 4.0 | 0.00 | 0.00 | 0.00 | 58 | 1013.2 |
| 20260505160229 | 60 | 213 | 2.0 | 4.0 | 0.00 | 0.00 | 0.00 | 57 | 1013.1 |
| 20260505153233 | 56 | 194 | 0.0 | 0.0 | 0.00 | 0.00 | 0.00 | 61 | 1013.2 |
| 20260505152727 | 55 | 252 | 0.0 | 1.0 | 0.00 | 0.00 | 0.00 | 60 | 1013.2 |
| 20260505152221 | 55 | 265 | 0.0 | 3.0 | 0.00 | 0.00 | 0.00 | 59 | 1013.1 |
| 20260505151735 | 55 | 235 | 0.0 | 2.0 | 0.00 | 0.00 | 0.00 | 59 | 1013.1 |
| 20260505151229 | 55 | 269 | 0.0 | 2.0 | 0.00 | 0.00 | 0.00 | 61 | 1013.1 |
| 20260505150720 | 56 | 173 | 0.0 | 1.0 | 0.00 | 0.00 | 0.00 | 61 | 1013.1 |
| 20260505150217 | 55 | 146 | 0.0 | 1.0 | 0.00 | 0.00 | 0.00 | 60 | 1013.0 |
| 20260505140221 | 49 | 236 | 0.0 | 0.0 | 0.00 | 0.00 | 0.00 | 69 | 1012.4 |
| 20260505130219 | 44 | 187 | 0.0 | 2.0 | 0.00 | 0.00 | 0.00 | 75 | 1011.7 |
| 20260505124722 | 44 | 270 | 0.0 | 1.0 | 0.00 | 0.00 | 0.00 | 75 | 1011.7 |
| 20260505124216 | 45 | 268 | 0.0 | 3.0 | 0.00 | 0.00 | 0.00 | 75 | 1011.6 |
| 20260505123731 | 44 | 216 | 2.0 | 3.0 | 0.00 | 0.00 | 0.00 | 76 | 1011.7 |
| 20260505123224 | 44 | 206 | 0.0 | 2.0 | 0.00 | 0.00 | 0.00 | 76 | 1011.6 |
| 20260505122718 | 44 | 215 | 1.0 | 2.0 | 0.00 | 0.00 | 0.00 | 77 | 1011.4 |
| 20260505122231 | 44 | 219 | 1.0 | 2.0 | 0.00 | 0.00 | 0.00 | 76 | 1011.4 |
| 20260505121724 | 45 | 174 | 1.0 | 2.0 | 0.00 | 0.00 | 0.00 | 75 | 1011.5 |
| 20260505121220 | 46 | 197 | 0.0 | 2.0 | 0.00 | 0.00 | 0.00 | 74 | 1011.4 |
| 20260505120733 | 46 | 197 | 0.0 | 2.0 | 0.00 | 0.00 | 0.00 | 74 | 1011.3 |
| 20260505120226 | 47 | 206 | 0.0 | 3.0 | 0.00 | 0.00 | 0.00 | 73 | 1011.2 |
| 20260505114730 | 47 | 258 | 0.0 | 0.0 | 0.00 | 0.00 | 0.00 | 71 | 1011.2 |
| 20260505114223 | 47 | 251 | 0.0 | 2.0 | 0.00 | 0.00 | 0.00 | 71 | 1011.2 |
| 20260505113717 | 47 | 256 | 0.0 | 3.0 | 0.00 | 0.00 | 0.00 | 70 | 1011.3 |
| 20260505113230 | 48 | 261 | 2.0 | 3.0 | 0.00 | 0.00 | 0.00 | 70 | 1011.4 |
| 20260505112726 | 48 | 263 | 1.0 | 2.0 | 0.00 | 0.00 | 0.00 | 70 | 1011.4 |
| 20260505111230 | 48 | 235 | 0.0 | 3.0 | 0.00 | 0.00 | 0.00 | 69 | 1011.3 |
| 20260505110723 | 49 | 249 | 2.0 | 3.0 | 0.00 | 0.00 | 0.00 | 68 | 1011.2 |
| 20260505110217 | 49 | 263 | 0.0 | 3.0 | 0.00 | 0.00 | 0.00 | 68 | 1011.2 |
| 20260505101723 | 50 | 256 | 3.0 | 5.0 | 0.00 | 0.00 | 0.00 | 68 | 1010.9 |
| 20260505101217 | 50 | 263 | 3.0 | 5.0 | 0.00 | 0.00 | 0.00 | 68 | 1011.0 |
| 20260505100734 | 50 | 264 | 3.0 | 6.0 | 0.00 | 0.00 | 0.00 | 67 | 1011.0 |
| 20260505100229 | 51 | 273 | 3.0 | 6.0 | 0.00 | 0.00 | 0.00 | 68 | 1010.9 |
| 20260505095721 | 51 | 274 | 0.0 | 0.0 | 0.00 | 0.00 | 0.00 | 68 | 1010.9 |
| 20260505095215 | 51 | 259 | 0.0 | 0.0 | 0.00 | 0.00 | 0.00 | 69 | 1010.9 |
| 20260505094224 | 51 | 185 | 0.0 | 0.0 | 0.00 | 0.00 | 0.00 | 68 | 1011.0 |
| 20260505093717 | 51 | 184 | 0.0 | 0.0 | 0.00 | 0.00 | 0.00 | 68 | 1011.0 |
| 20260505093231 | 52 | 248 | 0.0 | 0.0 | 0.00 | 0.00 | 0.00 | 67 | 1011.0 |
| 20260505092729 | 52 | 206 | 0.0 | 0.0 | 0.00 | 0.00 | 0.00 | 67 | 1011.0 |
| 20260505092221 | 52 | 209 | 0.0 | 0.0 | 0.00 | 0.00 | 0.00 | 67 | 1011.0 |
| 20260505091715 | 52 | 232 | 0.0 | 0.0 | 0.00 | 0.00 | 0.00 | 66 | 1010.9 |
| 20260505091229 | 52 | 178 | 0.0 | 0.0 | 0.00 | 0.00 | 0.00 | 66 | 1010.9 |
| 20260505090723 | 53 | 260 | 0.0 | 1.0 | 0.00 | 0.00 | 0.00 | 64 | 1010.9 |
| 20260505090236 | 54 | 192 | 0.0 | 1.0 | 0.00 | 0.00 | 0.00 | 63 | 1010.9 |
| 20260505085729 | 54 | 284 | 0.0 | 0.0 | 0.00 | 0.00 | 0.00 | 62 | 1010.8 |
| 20260505085221 | 54 | 284 | 0.0 | 0.0 | 0.00 | 0.00 | 0.00 | 61 | 1010.8 |
| 20260505084719 | 54 | 286 | 0.0 | 0.0 | 0.00 | 0.00 | 0.00 | 61 | 1010.8 |
| 20260505084232 | 55 | 258 | 0.0 | 0.0 | 0.00 | 0.00 | 0.00 | 60 | 1010.8 |
| 20260505083221 | 55 | 331 | 0.0 | 0.0 | 0.00 | 0.00 | 0.00 | 60 | 1010.8 |
| 20260505082735 | 55 | 270 | 0.0 | 0.0 | 0.00 | 0.00 | 0.00 | 60 | 1010.8 |
| 20260505082230 | 55 | 256 | 0.0 | 0.0 | 0.00 | 0.00 | 0.00 | 61 | 1010.8 |
| 20260505081723 | 55 | 256 | 0.0 | 0.0 | 0.00 | 0.00 | 0.00 | 60 | 1010.8 |
| 20260505081216 | 55 | 256 | 0.0 | 0.0 | 0.00 | 0.00 | 0.00 | 60 | 1010.8 |
| 20260505080733 | 56 | 256 | 0.0 | 0.0 | 0.00 | 0.00 | 0.00 | 60 | 1010.9 |
| 20260505080226 | 56 | 256 | 0.0 | 0.0 | 0.00 | 0.00 | 0.00 | 60 | 1010.9 |
| 20260505075720 | 56 | 202 | 0.0 | 0.0 | 0.00 | 0.00 | 0.00 | 60 | 1010.9 |
| 20260505075234 | 56 | 202 | 0.0 | 0.0 | 0.00 | 0.00 | 0.00 | 59 | 1010.9 |
| 20260505074727 | 56 | 202 | 0.0 | 0.0 | 0.00 | 0.00 | 0.00 | 59 | 1010.9 |
| 20260505074221 | 57 | 202 | 0.0 | 0.0 | 0.00 | 0.00 | 0.00 | 59 | 1010.9 |
| 20260505073735 | 57 | 202 | 0.0 | 0.0 | 0.00 | 0.00 | 0.00 | 58 | 1010.8 |
| 20260505072726 | 58 | 356 | 0.0 | 0.0 | 0.00 | 0.00 | 0.00 | 56 | 1010.8 |
| 20260505071734 | 59 | 12 | 0.0 | 2.0 | 0.00 | 0.00 | 0.00 | 55 | 1010.7 |
| 20260505071230 | 59 | 332 | 0.0 | 1.0 | 0.00 | 0.00 | 0.00 | 55 | 1010.7 |
| 20260505070723 | 59 | 68 | 0.0 | 3.0 | 0.00 | 0.00 | 0.00 | 54 | 1010.6 |
| 20260505070216 | 60 | 26 | 1.0 | 7.0 | 0.00 | 0.00 | 0.00 | 54 | 1010.5 |
| 20260505065730 | 60 | 7 | 0.0 | 8.0 | 0.00 | 0.00 | 0.00 | 53 | 1010.5 |
| 20260505065224 | 60 | 20 | 3.0 | 7.0 | 0.00 | 0.00 | 0.00 | 53 | 1010.4 |
| 20260505064722 | 60 | 87 | 1.0 | 6.0 | 0.00 | 0.00 | 0.00 | 52 | 1010.4 |
| 20260505064216 | 61 | 351 | 2.0 | 6.0 | 0.00 | 0.00 | 0.00 | 52 | 1010.4 |
| 20260505063729 | 61 | 34 | 2.0 | 8.0 | 0.00 | 0.00 | 0.00 | 51 | 1010.4 |
| 20260505063222 | 61 | 55 | 4.0 | 10.0 | 0.00 | 0.00 | 0.00 | 50 | 1010.3 |
| 20260505062716 | 61 | 349 | 5.0 | 10.0 | 0.00 | 0.00 | 0.00 | 49 | 1010.3 |
| 20260505062229 | 61 | 19 | 3.0 | 7.0 | 0.00 | 0.00 | 0.00 | 49 | 1010.3 |
| 20260505061218 | 62 | 354 | 1.0 | 9.0 | 0.00 | 0.00 | 0.00 | 49 | 1010.4 |
| 20260505060715 | 62 | 346 | 3.0 | 9.0 | 0.00 | 0.00 | 0.00 | 48 | 1010.3 |
| 20260505060229 | 62 | 9 | 0.0 | 8.0 | 0.00 | 0.00 | 0.00 | 48 | 1010.4 |
| 20260505055722 | 62 | 20 | 4.0 | 8.0 | 0.00 | 0.00 | 0.00 | 48 | 1010.4 |
| 20260505055216 | 63 | 352 | 5.0 | 9.0 | 0.00 | 0.00 | 0.00 | 48 | 1010.4 |
| 20260505054729 | 63 | 348 | 5.0 | 9.0 | 0.00 | 0.00 | 0.00 | 48 | 1010.3 |
| 20260505054223 | 63 | 13 | 3.0 | 10.0 | 0.00 | 0.00 | 0.00 | 48 | 1010.3 |
| 20260505053717 | 63 | 315 | 5.0 | 10.0 | 0.00 | 0.00 | 0.00 | 48 | 1010.2 |
| 20260505053230 | 63 | 5 | 6.0 | 12.0 | 0.00 | 0.00 | 0.00 | 48 | 1010.1 |
| 20260505052727 | 63 | 323 | 6.0 | 12.0 | 0.00 | 0.00 | 0.00 | 48 | 1010.2 |
| 20260505052220 | 62 | 349 | 6.0 | 10.0 | 0.00 | 0.00 | 0.00 | 49 | 1010.1 |
| 20260505051734 | 62 | 10 | 2.0 | 6.0 | 0.00 | 0.00 | 0.00 | 50 | 1010.2 |
| 20260505051227 | 62 | 69 | 0.0 | 2.0 | 0.00 | 0.00 | 0.00 | 50 | 1010.2 |
| 20260505050720 | 62 | 342 | 0.0 | 2.0 | 0.00 | 0.00 | 0.00 | 49 | 1010.1 |
| 20260505050233 | 62 | 90 | 0.0 | 2.0 | 0.00 | 0.00 | 0.00 | 49 | 1010.2 |
| 20260505041215 | 66 | 358 | 6.0 | 8.0 | 0.00 | 0.00 | 0.00 | 42 | 1009.6 |
| 20260505035725 | 66 | 108 | 3.0 | 6.0 | 0.00 | 0.00 | 0.00 | 40 | 1009.4 |
| 20260505035219 | 67 | 102 | 1.0 | 5.0 | 0.00 | 0.00 | 0.00 | 40 | 1009.3 |
| 20260505034733 | 67 | 143 | 1.0 | 6.0 | 0.00 | 0.00 | 0.00 | 39 | 1009.2 |
| 20260505033216 | 68 | 85 | 1.0 | 4.0 | 0.00 | 0.00 | 0.00 | 35 | 1009.0 |
| 20260505032730 | 69 | 51 | 0.0 | 8.0 | 0.00 | 0.00 | 0.00 | 33 | 1008.9 |
| 20260505032224 | 70 | 20 | 1.0 | 8.0 | 0.00 | 0.00 | 0.00 | 27 | 1008.8 |
| 20260505031721 | 70 | 1 | 2.0 | 7.0 | 0.00 | 0.00 | 0.00 | 26 | 1008.8 |
| 20260505031214 | 70 | 353 | 3.0 | 6.0 | 0.00 | 0.00 | 0.00 | 26 | 1008.7 |
| 20260505030728 | 70 | 69 | 0.0 | 6.0 | 0.00 | 0.00 | 0.00 | 26 | 1008.6 |
| 20260505025716 | 71 | 91 | 2.0 | 6.0 | 0.00 | 0.00 | 0.00 | 25 | 1008.4 |
| 20260505025232 | 72 | 40 | 1.0 | 6.0 | 0.00 | 0.00 | 0.00 | 24 | 1008.3 |
| 20260505024725 | 73 | 46 | 1.0 | 11.0 | 0.00 | 0.00 | 0.00 | 24 | 1008.2 |
| 20260505024218 | 73 | 93 | 2.0 | 11.0 | 0.00 | 0.00 | 0.00 | 23 | 1008.1 |
| 20260505023715 | 74 | 97 | 3.0 | 5.0 | 0.00 | 0.00 | 0.00 | 23 | 1008.1 |
| 20260505023231 | 74 | 80 | 2.0 | 9.0 | 0.00 | 0.00 | 0.00 | 23 | 1008.1 |
| 20260505022221 | 75 | 56 | 3.0 | 6.0 | 0.00 | 0.00 | 0.00 | 23 | 1008.1 |
| 20260505021734 | 75 | 31 | 2.0 | 10.0 | 0.00 | 0.00 | 0.00 | 24 | 1008.0 |
| 20260505020721 | 75 | 72 | 2.0 | 10.0 | 0.00 | 0.00 | 0.00 | 24 | 1008.0 |
| 20260505020234 | 76 | 83 | 4.0 | 11.0 | 0.00 | 0.00 | 0.00 | 24 | 1008.0 |
| 20260505015729 | 76 | 119 | 4.0 | 11.0 | 0.00 | 0.00 | 0.00 | 23 | 1008.0 |
| 20260505015227 | 77 | 353 | 5.0 | 11.0 | 0.00 | 0.00 | 0.00 | 23 | 1007.9 |
| 20260505014720 | 77 | 13 | 2.0 | 7.0 | 0.00 | 0.00 | 0.00 | 25 | 1007.9 |
| 20260505014214 | 77 | 360 | 3.0 | 6.0 | 0.00 | 0.00 | 0.00 | 26 | 1007.9 |
| 20260505013730 | 77 | 89 | 3.0 | 8.0 | 0.00 | 0.00 | 0.00 | 26 | 1007.8 |
| 20260505013223 | 77 | 64 | 3.0 | 9.0 | 0.00 | 0.00 | 0.00 | 25 | 1007.9 |
| 20260505012716 | 77 | 62 | 4.0 | 12.0 | 0.00 | 0.00 | 0.00 | 25 | 1007.8 |
| 20260505012229 | 77 | 78 | 4.0 | 12.0 | 0.00 | 0.00 | 0.00 | 26 | 1007.9 |
| 20260505011729 | 77 | 57 | 4.0 | 11.0 | 0.00 | 0.00 | 0.00 | 26 | 1007.9 |
| 20260505011221 | 78 | 76 | 3.0 | 11.0 | 0.00 | 0.00 | 0.00 | 25 | 1007.9 |
| 20260505005223 | 78 | 76 | 3.0 | 11.0 | 0.00 | 0.00 | 0.00 | 25 | 1007.9 |
| 20260505004716 | 78 | 84 | 2.0 | 16.0 | 0.00 | 0.00 | 0.00 | 25 | 1007.9 |
| 20260505004231 | 79 | 112 | 7.0 | 16.0 | 0.00 | 0.00 | 0.00 | 24 | 1008.0 |
| 20260505003218 | 80 | 20 | 4.0 | 13.0 | 0.00 | 0.00 | 0.00 | 24 | 1008.0 |
| 20260505002715 | 80 | 109 | 3.0 | 12.0 | 0.00 | 0.00 | 0.00 | 24 | 1008.1 |
| 20260505002230 | 80 | 71 | 3.0 | 12.0 | 0.00 | 0.00 | 0.00 | 24 | 1008.1 |
| 20260505001218 | 80 | 10 | 4.0 | 8.0 | 0.00 | 0.00 | 0.00 | 23 | 1008.1 |
| 20260505000731 | 79 | 292 | 3.0 | 11.0 | 0.00 | 0.00 | 0.00 | 23 | 1008.1 |
| 20260505000226 | 80 | 85 | 5.0 | 11.0 | 0.00 | 0.00 | 0.00 | 23 | 1008.2 |
| 20260504235214 | 81 | 93 | 6.0 | 11.0 | 0.00 | 0.00 | 0.00 | 23 | 1008.1 |
| 20260504234730 | 81 | 69 | 4.0 | 18.0 | 0.00 | 0.00 | 0.00 | 22 | 1008.1 |
| 20260504234227 | 81 | 93 | 5.0 | 18.0 | 0.00 | 0.00 | 0.00 | 22 | 1008.2 |
| 20260504233720 | 81 | 102 | 3.0 | 8.0 | 0.00 | 0.00 | 0.00 | 22 | 1008.1 |
| 20260504233234 | 81 | 85 | 5.0 | 8.0 | 0.00 | 0.00 | 0.00 | 22 | 1008.1 |
| 20260504232724 | 81 | 86 | 3.0 | 8.0 | 0.00 | 0.00 | 0.00 | 22 | 1008.1 |
| 20260504232218 | 81 | 31 | 4.0 | 10.0 | 0.00 | 0.00 | 0.00 | 23 | 1008.1 |
| 20260504231732 | 81 | 52 | 3.0 | 11.0 | 0.00 | 0.00 | 0.00 | 22 | 1008.0 |
| 20260504231225 | 81 | 62 | 3.0 | 11.0 | 0.00 | 0.00 | 0.00 | 21 | 1008.1 |
| 20260504230722 | 81 | 50 | 4.0 | 8.0 | 0.00 | 0.00 | 0.00 | 22 | 1008.2 |
| 20260504230214 | 80 | 97 | 2.0 | 9.0 | 0.00 | 0.00 | 0.00 | 22 | 1008.2 |
| 20260504225727 | 80 | 349 | 4.0 | 9.0 | 0.00 | 0.00 | 0.00 | 21 | 1008.4 |
| 20260504225221 | 81 | 100 | 3.0 | 9.0 | 0.00 | 0.00 | 0.00 | 22 | 1008.3 |
| 20260504224735 | 80 | 115 | 4.0 | 12.0 | 0.00 | 0.00 | 0.00 | 22 | 1008.4 |
| 20260504224230 | 80 | 88 | 5.0 | 12.0 | 0.00 | 0.00 | 0.00 | 25 | 1008.4 |
| 20260504223724 | 79 | 79 | 4.0 | 11.0 | 0.00 | 0.00 | 0.00 | 25 | 1008.5 |
| 20260504223217 | 79 | 103 | 5.0 | 11.0 | 0.00 | 0.00 | 0.00 | 24 | 1008.6 |
| 20260504222734 | 80 | 90 | 5.0 | 10.0 | 0.00 | 0.00 | 0.00 | 24 | 1008.6 |
| 20260504222227 | 79 | 97 | 3.0 | 11.0 | 0.00 | 0.00 | 0.00 | 24 | 1008.7 |
| 20260504221721 | 79 | 76 | 5.0 | 11.0 | 0.00 | 0.00 | 0.00 | 24 | 1008.8 |
| 20260504221235 | 80 | 107 | 6.0 | 10.0 | 0.00 | 0.00 | 0.00 | 24 | 1008.9 |
| 20260504220730 | 81 | 116 | 2.0 | 6.0 | 0.00 | 0.00 | 0.00 | 24 | 1008.9 |
| 20260504220223 | 81 | 123 | 2.0 | 9.0 | 0.00 | 0.00 | 0.00 | 25 | 1009.0 |
| 20260504215736 | 81 | 10 | 5.0 | 9.0 | 0.00 | 0.00 | 0.00 | 23 | 1009.1 |
| 20260504215232 | 81 | 83 | 5.0 | 9.0 | 0.00 | 0.00 | 0.00 | 24 | 1009.1 |
| 20260504214730 | 81 | 50 | 2.0 | 10.0 | 0.00 | 0.00 | 0.00 | 24 | 1009.1 |
| 20260504213720 | 81 | 100 | 3.0 | 11.0 | 0.00 | 0.00 | 0.00 | 24 | 1009.2 |
| 20260504213234 | 81 | 105 | 3.0 | 9.0 | 0.00 | 0.00 | 0.00 | 24 | 1009.2 |
| 20260504212225 | 81 | 81 | 3.0 | 8.0 | 0.00 | 0.00 | 0.00 | 23 | 1009.3 |
| 20260504211719 | 81 | 20 | 4.0 | 8.0 | 0.00 | 0.00 | 0.00 | 24 | 1009.4 |